createdAt,value
2022-09-28T00:00:40.967Z,11.20
2022-09-28T00:03:09.032Z,13.65
2022-09-28T00:05:35.592Z,14.02
2022-09-28T00:08:02.010Z,9.75
2022-09-28T00:10:28.540Z,12.10
2022-09-28T00:12:55.005Z,10.95
2022-09-28T00:15:22.374Z,10.40
2022-09-28T00:17:48.779Z,12.30
2022-09-28T00:20:15.360Z,12.15
2022-09-28T00:22:41.802Z,12.30
2022-09-28T00:25:08.817Z,7.63
2022-09-28T00:27:35.393Z,12.02
2022-09-28T00:30:01.904Z,10.45
2022-09-28T00:32:28.713Z,11.55
2022-09-28T00:34:55.154Z,9.30
2022-09-28T00:37:21.605Z,9.30
2022-09-28T00:39:48.715Z,8.40
2022-09-28T00:42:21.078Z,11.13
2022-09-28T00:44:52.042Z,12.35
2022-09-28T00:47:37.637Z,10.55
2022-09-28T00:50:20.285Z,9.00
2022-09-28T00:53:14.491Z,13.10
2022-09-28T00:56:14.120Z,10.05
2022-09-28T00:58:45.360Z,9.57
2022-09-28T01:01:12.412Z,11.25
2022-09-28T01:03:39.907Z,8.27
2022-09-28T01:06:08.091Z,9.93
2022-09-28T01:08:35.970Z,11.65
2022-09-28T01:11:02.505Z,9.25
2022-09-28T01:13:31.863Z,9.45
2022-09-28T01:16:07.297Z,12.40
2022-09-28T01:19:15.800Z,13.90
2022-09-28T01:22:04.103Z,11.70
2022-09-28T01:24:40.321Z,15.40
2022-09-28T01:27:12.824Z,9.73
2022-09-28T01:29:42.149Z,9.25
2022-09-28T01:32:26.377Z,11.30
2022-09-28T01:34:59.397Z,10.70
2022-09-28T01:37:39.271Z,12.32
2022-09-28T01:40:09.298Z,12.63
2022-09-28T01:42:39.484Z,11.77
2022-09-28T01:45:14.250Z,12.00
2022-09-28T01:47:41.635Z,9.77
2022-09-28T01:50:14.389Z,9.23
2022-09-28T01:52:51.629Z,12.70
2022-09-28T01:55:50.180Z,7.95
2022-09-28T01:58:28.353Z,8.70
2022-09-28T02:01:06.201Z,9.45
2022-09-28T02:03:39.916Z,7.55
2022-09-28T02:06:16.237Z,11.07
2022-09-28T02:08:50.538Z,6.65
2022-09-28T02:11:20.149Z,11.95
2022-09-28T02:14:00.962Z,11.07
2022-09-28T02:17:03.943Z,15.65
2022-09-28T02:19:32.724Z,11.13
2022-09-28T02:22:08.367Z,12.40
2022-09-28T02:24:42.624Z,12.88
2022-09-28T02:27:23.941Z,8.88
2022-09-28T02:29:50.502Z,9.07
2022-09-28T02:32:19.434Z,13.07
2022-09-28T02:34:46.329Z,10.82
2022-09-28T02:37:12.829Z,10.02
2022-09-28T02:39:39.304Z,11.88
2022-09-28T02:42:05.834Z,13.60
2022-09-28T02:44:54.124Z,10.15
2022-09-28T02:47:38.888Z,10.45
2022-09-28T02:50:51.196Z,13.10
2022-09-28T02:53:37.800Z,9.82
2022-09-28T02:56:29.993Z,14.15
2022-09-28T02:59:20.790Z,11.07
2022-09-28T03:01:50.241Z,11.52
2022-09-28T03:04:28.645Z,10.65
2022-09-28T03:07:01.688Z,16.20
2022-09-28T03:09:39.771Z,9.38
2022-09-28T03:12:16.281Z,11.27
2022-09-28T03:14:43.326Z,10.90
2022-09-28T03:17:11.134Z,14.38
2022-09-28T03:19:37.986Z,7.85
2022-09-28T03:22:04.469Z,10.25
2022-09-28T03:24:31.127Z,15.32
2022-09-28T03:26:57.558Z,11.48
2022-09-28T03:29:24.124Z,11.20
2022-09-28T03:31:57.331Z,13.52
2022-09-28T03:34:23.784Z,11.00
2022-09-28T03:36:51.131Z,13.02
2022-09-28T03:39:17.740Z,11.45
2022-09-28T03:41:44.227Z,8.90
2022-09-28T03:44:10.767Z,13.38
2022-09-28T03:46:38.324Z,11.88
2022-09-28T03:49:09.819Z,18.83
2022-09-28T03:51:36.400Z,14.30
2022-09-28T03:54:02.892Z,11.98
2022-09-28T03:56:29.687Z,15.48
2022-09-28T03:58:56.132Z,10.90
2022-09-28T04:01:22.625Z,17.35
2022-09-28T04:03:54.031Z,15.20
2022-09-28T04:06:20.836Z,10.90
2022-09-28T04:08:47.289Z,11.68
2022-09-28T04:11:13.842Z,9.00
2022-09-28T04:13:40.420Z,14.15
2022-09-28T04:16:10.802Z,15.85
2022-09-28T04:18:37.933Z,9.85
2022-09-28T04:21:07.000Z,12.25
2022-09-28T04:23:39.816Z,12.15
2022-09-28T04:26:08.891Z,13.07
2022-09-28T04:28:35.358Z,7.22
2022-09-28T04:31:01.871Z,12.02
2022-09-28T04:33:28.394Z,13.43
2022-09-28T04:35:54.930Z,17.25
2022-09-28T04:38:41.470Z,14.63
2022-09-28T04:41:08.539Z,10.32
2022-09-28T04:43:35.128Z,11.30
2022-09-28T04:46:02.588Z,12.43
2022-09-28T04:48:37.486Z,11.00
2022-09-28T04:51:34.757Z,13.55
2022-09-28T04:54:01.280Z,13.90
2022-09-28T04:56:27.829Z,12.40
2022-09-28T04:58:54.372Z,13.98
2022-09-28T05:01:22.194Z,12.63
2022-09-28T05:04:12.059Z,13.38
2022-09-28T05:06:57.015Z,10.52
2022-09-28T05:09:24.184Z,15.35
2022-09-28T05:11:52.049Z,14.65
2022-09-28T05:14:21.172Z,13.57
2022-09-28T05:16:48.757Z,12.43
2022-09-28T05:19:21.473Z,15.32
2022-09-28T05:21:50.745Z,13.82
2022-09-28T05:24:17.174Z,14.43
2022-09-28T05:26:49.343Z,10.43
2022-09-28T05:29:16.135Z,13.85
2022-09-28T05:31:48.406Z,14.10
2022-09-28T05:34:37.978Z,12.50
2022-09-28T05:37:04.716Z,12.15
2022-09-28T05:39:31.176Z,14.95
2022-09-28T05:41:57.663Z,15.65
2022-09-28T05:44:24.108Z,12.65
2022-09-28T05:46:53.328Z,16.35
2022-09-28T05:49:19.844Z,17.73
2022-09-28T05:51:47.210Z,18.00
2022-09-28T05:54:13.784Z,21.10
2022-09-28T05:56:44.484Z,15.63
2022-09-28T05:59:11.085Z,15.00
2022-09-28T06:01:37.962Z,15.82
2022-09-28T06:04:07.836Z,16.50
2022-09-28T06:06:35.235Z,16.13
2022-09-28T06:09:01.724Z,15.40
2022-09-28T06:11:31.964Z,15.25
2022-09-28T06:14:02.675Z,18.17
2022-09-28T06:16:31.027Z,19.65
2022-09-28T06:18:57.879Z,15.70
2022-09-28T06:21:48.765Z,15.75
2022-09-28T06:24:15.456Z,19.88
2022-09-28T06:26:41.937Z,16.50
2022-09-28T06:29:08.486Z,17.20
2022-09-28T06:31:35.013Z,16.98
2022-09-28T06:34:01.893Z,21.23
2022-09-28T06:36:29.270Z,17.88
2022-09-28T06:38:55.789Z,17.80
2022-09-28T06:41:23.007Z,14.30
2022-09-28T06:43:49.501Z,13.38
2022-09-28T06:46:34.450Z,12.82
2022-09-28T06:49:20.881Z,12.15
2022-09-28T06:52:12.981Z,12.77
2022-09-28T06:54:59.402Z,19.05
2022-09-28T06:57:42.970Z,18.63
2022-09-28T07:00:10.150Z,15.75
2022-09-28T07:02:37.353Z,16.17
2022-09-28T07:05:45.379Z,12.60
2022-09-28T07:08:30.157Z,10.27
2022-09-28T07:11:16.933Z,14.98
2022-09-28T07:13:51.269Z,19.33
2022-09-28T07:16:25.880Z,14.88
2022-09-28T07:18:54.564Z,15.10
2022-09-28T07:21:29.225Z,11.73
2022-09-28T07:23:58.096Z,13.70
2022-09-28T07:26:24.957Z,9.98
2022-09-28T07:28:57.248Z,10.32
2022-09-28T07:31:42.304Z,14.15
2022-09-28T07:34:20.525Z,13.23
2022-09-28T07:37:13.197Z,13.15
2022-09-28T07:39:39.905Z,9.15
2022-09-28T07:42:06.399Z,8.45
2022-09-28T07:44:32.911Z,9.90
2022-09-28T07:46:59.627Z,9.95
2022-09-28T07:49:44.969Z,11.10
2022-09-28T07:52:17.823Z,8.73
2022-09-28T07:55:07.526Z,10.35
2022-09-28T07:58:09.473Z,11.63
2022-09-28T08:00:45.906Z,9.40
2022-09-28T08:03:12.642Z,15.82
2022-09-28T08:05:39.263Z,9.07
2022-09-28T08:08:05.737Z,11.02
2022-09-28T08:10:33.075Z,9.68
2022-09-28T08:13:11.039Z,8.70
2022-09-28T08:15:54.534Z,18.60
2022-09-28T08:18:43.963Z,9.23
2022-09-28T08:21:10.483Z,8.18
2022-09-28T08:23:37.631Z,9.68
2022-09-28T08:26:05.342Z,7.85
2022-09-28T08:28:33.624Z,9.88
2022-09-28T08:33:30.853Z,8.98
2022-09-28T08:36:15.873Z,11.63
2022-09-28T08:39:00.964Z,13.07
2022-09-28T08:41:54.831Z,7.93
2022-09-28T08:44:39.755Z,11.45
2022-09-28T08:47:25.604Z,11.02
2022-09-28T08:50:17.711Z,10.77
2022-09-28T08:53:27.022Z,8.45
2022-09-28T08:56:14.932Z,12.60
2022-09-28T08:58:48.417Z,8.88
2022-09-28T09:01:19.115Z,11.30
2022-09-28T09:03:48.259Z,8.07
2022-09-28T09:06:52.372Z,7.85
2022-09-28T09:09:33.089Z,7.63
2022-09-28T09:12:17.948Z,13.23
2022-09-28T09:15:41.659Z,11.20
2022-09-28T09:18:32.928Z,7.85
2022-09-28T09:21:40.124Z,10.25
2022-09-28T09:24:26.100Z,10.25
2022-09-28T09:27:04.770Z,8.20
2022-09-28T09:29:45.575Z,9.27
2022-09-28T09:32:36.573Z,8.02
2022-09-28T09:35:29.000Z,8.43
2022-09-28T09:38:31.442Z,8.23
2022-09-28T09:41:50.086Z,9.25
2022-09-28T09:45:20.717Z,19.17
2022-09-28T09:48:07.460Z,7.27
2022-09-28T09:50:40.550Z,8.38
2022-09-28T09:53:20.249Z,8.00
2022-09-28T09:55:50.928Z,7.20
2022-09-28T09:58:36.353Z,8.00
2022-09-28T10:01:26.959Z,7.88
2022-09-28T10:04:24.509Z,6.85
2022-09-28T10:06:58.644Z,7.18
2022-09-28T10:09:37.926Z,6.00
2022-09-28T10:12:34.516Z,7.45
2022-09-28T10:15:05.105Z,6.28
2022-09-28T10:17:39.223Z,4.72
2022-09-28T10:20:24.472Z,6.78
2022-09-28T10:22:58.921Z,5.78
2022-09-28T10:25:26.286Z,7.25
2022-09-28T10:27:52.788Z,5.90
2022-09-28T10:30:25.037Z,5.05
2022-09-28T10:32:53.772Z,6.15
2022-09-28T10:35:24.693Z,6.00
2022-09-28T10:37:59.132Z,6.78
2022-09-28T10:40:47.686Z,6.50
2022-09-28T10:43:25.484Z,4.80
2022-09-28T10:46:05.274Z,5.03
2022-09-28T10:48:50.485Z,3.85
2022-09-28T10:51:18.611Z,6.70
2022-09-28T10:54:01.756Z,5.93
2022-09-28T10:56:52.360Z,3.35
2022-09-28T10:59:38.867Z,3.42
2022-09-28T11:02:37.188Z,4.63
2022-09-28T11:05:21.218Z,3.78
2022-09-28T11:07:48.516Z,5.45
2022-09-28T11:10:23.102Z,3.92
2022-09-28T11:12:52.191Z,4.30
2022-09-28T11:15:24.509Z,5.07
2022-09-28T11:17:52.327Z,4.75
2022-09-28T11:20:28.151Z,3.95
2022-09-28T11:23:00.920Z,4.65
2022-09-28T11:25:32.798Z,5.20
2022-09-28T11:28:02.670Z,2.08
2022-09-28T11:30:29.217Z,4.82
2022-09-28T11:33:24.534Z,6.15
2022-09-28T11:36:21.766Z,7.05
2022-09-28T11:39:13.406Z,5.45
2022-09-28T11:42:02.262Z,3.50
2022-09-28T11:44:48.865Z,4.55
2022-09-28T11:47:19.114Z,5.30
2022-09-28T11:49:53.823Z,2.95
2022-09-28T11:52:24.336Z,3.15
2022-09-28T11:55:01.876Z,3.80
2022-09-28T11:57:35.105Z,5.22
2022-09-28T12:00:06.353Z,3.58
2022-09-28T12:05:25.029Z,3.35
2022-09-28T12:08:09.448Z,4.45
2022-09-28T12:11:06.623Z,4.93
2022-09-28T12:14:21.371Z,5.20
2022-09-28T12:17:10.982Z,5.82
2022-09-28T12:20:33.092Z,3.33
2022-09-28T12:25:28.682Z,4.95
2022-09-28T12:27:55.075Z,4.68
2022-09-28T12:30:23.479Z,3.70
2022-09-28T12:32:57.144Z,4.72
2022-09-28T12:35:29.340Z,5.03
2022-09-28T12:38:27.866Z,4.00
2022-09-28T12:40:54.325Z,5.60
2022-09-28T12:43:58.475Z,7.28
2022-09-28T12:46:49.092Z,4.72
2022-09-28T12:50:37.659Z,3.53
2022-09-28T12:53:08.326Z,4.93
2022-09-28T12:55:51.809Z,3.80
2022-09-28T12:58:31.204Z,3.92
2022-09-28T13:01:06.408Z,4.20
2022-09-28T13:03:35.562Z,4.40
2022-09-28T13:06:08.119Z,7.93
2022-09-28T13:08:53.481Z,3.25
2022-09-28T13:11:32.963Z,3.70
2022-09-28T13:14:05.291Z,6.88
2022-09-28T13:16:50.834Z,3.30
2022-09-28T13:19:20.162Z,4.07
2022-09-28T13:22:20.441Z,3.60
2022-09-28T13:24:48.675Z,2.67
2022-09-28T13:27:22.263Z,5.03
2022-09-28T13:29:50.556Z,5.47
2022-09-28T13:32:18.407Z,2.35
2022-09-28T13:34:49.048Z,4.35
2022-09-28T13:37:15.424Z,2.47
2022-09-28T13:39:44.849Z,3.97
2022-09-28T13:42:24.286Z,2.45
2022-09-28T13:45:15.304Z,4.07
2022-09-28T13:47:50.944Z,6.93
2022-09-28T13:50:28.803Z,3.38
2022-09-28T13:53:07.402Z,3.63
2022-09-28T13:55:48.712Z,4.57
2022-09-28T13:58:24.183Z,3.40
2022-09-28T14:01:00.330Z,4.82
2022-09-28T14:03:41.040Z,2.10
2022-09-28T14:06:29.189Z,5.93
2022-09-28T14:08:58.598Z,3.53
2022-09-28T14:11:42.248Z,3.45
2022-09-28T14:14:08.677Z,3.70
2022-09-28T14:16:36.442Z,3.03
2022-09-28T14:19:07.098Z,2.28
2022-09-28T14:22:17.465Z,3.72
2022-09-28T14:24:56.040Z,4.80
2022-09-28T14:27:30.588Z,3.65
2022-09-28T14:30:12.464Z,6.13
2022-09-28T14:32:40.913Z,1.98
2022-09-28T14:35:30.503Z,2.95
2022-09-28T14:38:13.466Z,3.05
2022-09-28T14:40:56.375Z,3.67
2022-09-28T14:43:57.171Z,2.92
2022-09-28T14:46:30.093Z,1.57
2022-09-28T14:49:00.639Z,1.92
2022-09-28T14:51:27.084Z,2.63
2022-09-28T14:54:15.153Z,6.63
2022-09-28T14:56:53.524Z,4.63
2022-09-28T14:59:22.837Z,2.95
2022-09-28T15:01:59.146Z,3.40
2022-09-28T15:04:28.888Z,1.90
2022-09-28T15:06:55.468Z,2.67
2022-09-28T15:09:29.686Z,3.45
2022-09-28T15:12:01.090Z,2.67
2022-09-28T15:16:57.334Z,5.00
2022-09-28T15:19:32.817Z,1.65
2022-09-28T15:21:59.729Z,3.00
2022-09-28T15:24:28.349Z,4.75
2022-09-28T15:26:54.836Z,4.63
2022-09-28T15:29:21.677Z,4.80
2022-09-28T15:31:52.299Z,2.70
2022-09-28T15:34:32.768Z,4.32
2022-09-28T15:36:59.350Z,4.10
2022-09-28T15:39:32.078Z,4.30
2022-09-28T15:41:59.931Z,4.85
2022-09-28T15:44:36.863Z,4.32
2022-09-28T15:47:10.059Z,4.07
2022-09-28T15:49:38.899Z,3.80
2022-09-28T15:52:05.899Z,4.93
2022-09-28T15:54:42.116Z,2.60
2022-09-28T15:57:32.489Z,4.50
2022-09-28T16:00:00.087Z,2.10
2022-09-28T16:02:27.024Z,9.30
2022-09-28T16:04:59.278Z,5.68
2022-09-28T16:07:34.035Z,2.42
2022-09-28T16:10:12.799Z,3.28
2022-09-28T16:12:44.255Z,2.13
2022-09-28T16:17:42.855Z,3.55
2022-09-28T16:20:21.008Z,3.25
2022-09-28T16:22:47.784Z,3.65
2022-09-28T16:25:22.706Z,2.65
2022-09-28T16:27:50.892Z,4.15
2022-09-28T16:30:25.468Z,3.00
2022-09-28T16:32:59.045Z,4.15
2022-09-28T16:35:26.871Z,6.40
2022-09-28T16:38:04.196Z,4.55
2022-09-28T16:40:32.514Z,2.63
2022-09-28T16:43:02.093Z,3.17
2022-09-28T16:45:28.972Z,4.47
2022-09-28T16:47:57.221Z,3.10
2022-09-28T16:50:24.575Z,3.45
2022-09-28T16:53:00.100Z,2.97
2022-09-28T16:55:42.866Z,4.95
2022-09-28T16:58:09.409Z,3.15
2022-09-28T17:00:35.872Z,5.22
2022-09-28T17:03:02.375Z,3.50
2022-09-28T17:05:28.925Z,3.72
2022-09-28T17:08:03.864Z,4.28
2022-09-28T17:11:02.529Z,3.92
2022-09-28T17:13:30.676Z,4.72
2022-09-28T17:15:58.287Z,4.55
2022-09-28T17:18:25.098Z,5.60
2022-09-28T17:20:53.061Z,4.70
2022-09-28T17:28:19.936Z,5.40
2022-09-28T17:30:46.588Z,4.40
2022-09-28T17:33:13.247Z,6.07
2022-09-28T17:35:40.135Z,9.00
2022-09-28T17:38:06.830Z,4.30
2022-09-28T17:40:33.345Z,7.65
2022-09-28T17:42:59.874Z,5.60
2022-09-28T17:45:28.130Z,7.00
2022-09-28T17:47:55.814Z,10.52
2022-09-28T17:50:31.704Z,8.38
2022-09-28T17:52:58.739Z,6.43
2022-09-28T17:55:30.128Z,10.32
2022-09-28T17:57:57.289Z,7.53
2022-09-28T18:00:24.993Z,8.27
2022-09-28T18:02:51.678Z,6.57
2022-09-28T18:05:18.177Z,7.90
2022-09-28T18:07:47.621Z,8.52
2022-09-28T18:10:16.945Z,14.80
2022-09-28T18:12:43.466Z,16.73
2022-09-28T18:15:10.919Z,11.20
2022-09-28T18:17:38.957Z,11.88
2022-09-28T18:20:07.701Z,8.48
2022-09-28T18:22:34.235Z,12.75
2022-09-28T18:25:00.825Z,7.13
2022-09-28T18:27:31.519Z,10.23
2022-09-28T18:29:58.223Z,7.35
2022-09-28T18:32:24.772Z,8.48
2022-09-28T18:34:51.409Z,9.98
2022-09-28T18:37:18.288Z,8.15
2022-09-28T18:39:44.855Z,7.28
2022-09-28T18:42:12.354Z,10.30
2022-09-28T18:44:39.063Z,7.50
2022-09-28T18:47:05.576Z,7.38
2022-09-28T18:49:32.167Z,7.88
2022-09-28T18:51:58.599Z,7.45
2022-09-28T18:54:25.179Z,6.70
2022-09-28T18:56:55.276Z,7.20
2022-09-28T18:59:22.193Z,7.65
2022-09-28T19:01:48.884Z,9.63
2022-09-28T19:04:15.859Z,8.70
2022-09-28T19:06:42.790Z,8.70
2022-09-28T19:09:10.008Z,7.32
2022-09-28T19:11:36.634Z,8.73
2022-09-28T19:14:03.184Z,13.65
2022-09-28T19:16:31.063Z,9.75
2022-09-28T19:18:58.465Z,7.75
2022-09-28T19:21:25.675Z,6.60
2022-09-28T19:23:52.173Z,7.20
2022-09-28T19:26:21.648Z,7.90
2022-09-28T19:28:48.857Z,6.63
2022-09-28T19:31:16.064Z,7.97
2022-09-28T19:33:43.151Z,6.97
2022-09-28T19:36:12.548Z,5.75
2022-09-28T19:38:40.287Z,7.28
2022-09-28T19:41:18.209Z,8.50
2022-09-28T19:43:44.659Z,7.70
2022-09-28T19:46:11.185Z,7.03
2022-09-28T19:48:37.740Z,5.63
2022-09-28T19:51:06.105Z,5.70
2022-09-28T19:53:35.339Z,11.43
2022-09-28T19:56:02.846Z,6.72
2022-09-28T19:58:31.004Z,6.90
2022-09-28T20:00:57.449Z,7.35
2022-09-28T20:03:23.948Z,7.47
2022-09-28T20:05:56.855Z,7.07
2022-09-28T20:08:23.584Z,7.03
2022-09-28T20:10:54.092Z,8.68
2022-09-28T20:13:21.472Z,4.03
2022-09-28T20:15:48.256Z,7.82
2022-09-28T20:18:15.545Z,8.23
2022-09-28T20:20:42.261Z,5.78
2022-09-28T20:23:09.407Z,9.38
2022-09-28T20:25:35.899Z,5.57
2022-09-28T20:28:02.494Z,8.13
2022-09-28T20:30:28.914Z,7.13
2022-09-28T20:32:55.422Z,6.80
2022-09-28T20:35:32.164Z,7.63
2022-09-28T20:37:59.434Z,4.95
2022-09-28T20:40:25.917Z,7.60
2022-09-28T20:42:52.416Z,6.80
2022-09-28T20:45:18.860Z,5.75
2022-09-28T20:47:45.323Z,9.02
2022-09-28T20:50:11.775Z,6.20
2022-09-28T20:52:38.291Z,5.97
2022-09-28T20:55:05.098Z,8.10
2022-09-28T20:57:31.580Z,6.05
2022-09-28T20:59:58.016Z,6.53
2022-09-28T21:02:24.595Z,10.40
2022-09-28T21:04:51.194Z,5.43
2022-09-28T21:07:17.664Z,6.75
2022-09-28T21:09:44.090Z,6.32
2022-09-28T21:12:10.543Z,5.80
2022-09-28T21:14:36.971Z,5.85
2022-09-28T21:17:03.442Z,5.93
2022-09-28T21:19:29.820Z,5.97
2022-09-28T21:21:56.278Z,5.97
2022-09-28T21:24:22.682Z,6.40
2022-09-28T21:26:49.121Z,6.25
2022-09-28T21:29:15.590Z,8.88
2022-09-28T21:31:45.033Z,5.93
2022-09-28T21:34:19.899Z,5.60
2022-09-28T21:36:49.161Z,5.30
2022-09-28T21:39:15.619Z,7.50
2022-09-28T21:41:42.282Z,6.43
2022-09-28T21:44:09.017Z,5.97
2022-09-28T21:46:37.294Z,8.65
2022-09-28T21:49:05.608Z,7.18
2022-09-28T21:51:32.246Z,5.07
2022-09-28T21:53:58.833Z,5.75
2022-09-28T21:56:25.279Z,7.80
2022-09-28T21:58:51.749Z,8.10
2022-09-28T22:01:23.549Z,5.80
2022-09-28T22:03:52.764Z,5.22
2022-09-28T22:06:21.264Z,7.63
2022-09-28T22:08:48.820Z,5.95
2022-09-28T22:11:21.276Z,6.75
2022-09-28T22:13:56.908Z,6.18
2022-09-28T22:16:25.630Z,8.30
2022-09-28T22:18:52.534Z,7.18
2022-09-28T22:21:24.281Z,5.38
2022-09-28T22:23:51.016Z,5.38
2022-09-28T22:26:22.818Z,6.53
2022-09-28T22:28:52.340Z,5.63
2022-09-28T22:31:21.187Z,8.27
2022-09-28T22:33:48.101Z,7.13
2022-09-28T22:36:15.387Z,5.93
2022-09-28T22:38:45.795Z,8.77
2022-09-28T22:41:16.864Z,6.40
2022-09-28T22:43:43.699Z,7.13
2022-09-28T22:46:13.127Z,7.13
2022-09-28T22:48:40.192Z,6.35
2022-09-28T22:51:06.916Z,5.93
2022-09-28T22:53:34.846Z,6.10
2022-09-28T22:56:02.347Z,4.82
2022-09-28T22:58:28.808Z,5.00
2022-09-28T23:00:55.229Z,5.20
2022-09-28T23:03:21.699Z,6.55
2022-09-28T23:05:55.427Z,5.15
2022-09-28T23:08:23.404Z,7.18
2022-09-28T23:10:51.335Z,5.10
2022-09-28T23:13:18.535Z,5.07
2022-09-28T23:15:58.226Z,7.70
2022-09-28T23:18:27.581Z,4.97
2022-09-28T23:21:01.625Z,5.72
2022-09-28T23:23:28.880Z,7.32
2022-09-28T23:25:55.916Z,6.22
2022-09-28T23:28:24.936Z,4.90
2022-09-28T23:30:52.182Z,6.95
2022-09-28T23:33:20.867Z,6.20
2022-09-28T23:35:47.333Z,5.25
2022-09-28T23:38:15.744Z,5.53
2022-09-28T23:40:42.162Z,4.63
2022-09-28T23:43:08.734Z,6.90
2022-09-28T23:45:35.228Z,5.43
2022-09-28T23:48:02.229Z,6.40
2022-09-28T23:50:28.742Z,5.07
2022-09-28T23:52:55.445Z,8.18
2022-09-28T23:55:21.920Z,7.20
2022-09-28T23:57:48.329Z,4.95
